createdAt,value
2023-05-11T00:01:34.226Z,100.00
2023-05-11T00:04:01.519Z,100.00
2023-05-11T00:06:28.675Z,100.00
2023-05-11T00:08:56.246Z,100.00
2023-05-11T00:11:23.819Z,100.00
2023-05-11T00:13:50.500Z,100.00
2023-05-11T00:16:17.122Z,100.00
2023-05-11T00:18:43.905Z,100.00
2023-05-11T00:21:10.608Z,100.00
2023-05-11T00:23:37.152Z,100.00
2023-05-11T00:26:03.832Z,100.00
2023-05-11T00:28:30.654Z,100.00
2023-05-11T00:30:57.757Z,100.00
2023-05-11T00:33:24.647Z,100.00
2023-05-11T00:35:52.234Z,100.00
2023-05-11T00:38:19.394Z,100.00
2023-05-11T05:17:29.930Z,100.00
2023-05-11T05:19:58.058Z,100.00
2023-05-11T05:22:25.984Z,100.00
2023-05-11T05:24:52.601Z,100.00
2023-05-11T05:27:19.395Z,100.00
2023-05-11T05:29:46.023Z,100.00
2023-05-11T05:32:12.648Z,100.00
2023-05-11T05:34:39.328Z,100.00
2023-05-11T05:37:07.337Z,100.00
2023-05-11T05:39:33.990Z,100.00
2023-05-11T05:42:01.405Z,100.00
2023-05-11T05:44:27.986Z,100.00
2023-05-11T05:46:54.819Z,100.00
2023-05-11T05:49:21.845Z,100.00
2023-05-11T05:51:48.880Z,100.00
2023-05-11T05:54:15.462Z,100.00
2023-05-11T05:56:42.333Z,100.00
2023-05-11T05:59:09.965Z,100.00
2023-05-11T06:01:37.503Z,100.00
2023-05-11T06:04:04.734Z,100.00
2023-05-11T06:06:31.799Z,100.00
2023-05-11T06:08:59.360Z,100.00
2023-05-11T06:11:27.426Z,100.00
2023-05-11T06:13:54.025Z,100.00
2023-05-11T06:16:20.685Z,100.00
2023-05-11T06:18:47.474Z,100.00
2023-05-11T06:21:14.247Z,100.00
2023-05-11T06:23:40.877Z,100.00
2023-05-11T06:26:07.554Z,100.00
2023-05-11T06:28:34.180Z,100.00
2023-05-11T06:31:00.809Z,100.00
2023-05-11T06:33:27.460Z,100.00
2023-05-11T06:35:54.056Z,100.00
2023-05-11T06:38:20.706Z,100.00
2023-05-11T06:40:47.439Z,100.00
2023-05-11T06:43:14.030Z,100.00
2023-05-11T06:45:41.860Z,100.00
2023-05-11T06:48:10.460Z,100.00
2023-05-11T06:50:37.228Z,100.00
2023-05-11T06:53:03.964Z,100.00
2023-05-11T06:55:30.641Z,100.00
2023-05-11T06:57:57.243Z,100.00
2023-05-11T07:00:24.052Z,100.00
2023-05-11T07:02:50.832Z,100.00
2023-05-11T07:05:17.505Z,100.00
2023-05-11T07:07:44.135Z,100.00
2023-05-11T07:10:10.901Z,100.00
2023-05-11T07:12:37.478Z,100.00
2023-05-11T07:15:04.336Z,100.00
2023-05-11T07:17:31.028Z,100.00
2023-05-11T07:19:57.610Z,100.00
2023-05-11T07:22:24.196Z,100.00
2023-05-11T07:24:50.859Z,100.00
2023-05-11T07:27:17.737Z,100.00
2023-05-11T07:29:44.381Z,100.00
2023-05-11T07:32:11.079Z,100.00
2023-05-11T07:34:37.718Z,100.00
2023-05-11T07:37:04.308Z,100.00
2023-05-11T07:39:30.979Z,100.00
2023-05-11T07:41:57.576Z,100.00
2023-05-11T07:44:24.154Z,99.09
2023-05-11T07:46:50.954Z,96.78
2023-05-11T07:49:22.926Z,97.97
2023-05-11T07:51:57.967Z,94.78
2023-05-11T07:54:24.587Z,96.46
2023-05-11T07:56:51.250Z,100.00
2023-05-11T07:59:18.062Z,95.75
2023-05-11T08:01:44.766Z,98.89
2023-05-11T08:04:11.375Z,100.00
2023-05-11T08:06:38.732Z,98.25
2023-05-11T08:09:06.450Z,100.00
2023-05-11T08:11:33.081Z,92.63
2023-05-11T08:13:59.703Z,96.12
2023-05-11T08:16:26.332Z,96.50
2023-05-11T08:18:53.006Z,92.70
2023-05-11T08:21:19.774Z,92.31
2023-05-11T08:23:46.574Z,100.00
2023-05-11T08:26:13.366Z,92.11
2023-05-11T08:28:39.982Z,93.03
2023-05-11T08:31:06.581Z,93.18
2023-05-11T08:33:38.187Z,94.88
2023-05-11T08:36:06.607Z,96.99
2023-05-11T08:38:34.881Z,86.07
2023-05-11T08:41:02.254Z,89.34
2023-05-11T08:43:30.175Z,85.70
2023-05-11T08:46:01.186Z,87.72
2023-05-11T08:48:28.948Z,87.38
2023-05-11T08:50:55.920Z,84.01
2023-05-11T08:53:23.678Z,85.12
2023-05-11T08:55:51.742Z,95.04
2023-05-11T08:58:22.259Z,91.69
2023-05-11T09:00:49.410Z,87.87
2023-05-11T09:03:17.661Z,91.67
2023-05-11T09:05:46.797Z,91.22
2023-05-11T09:08:14.621Z,85.24
2023-05-11T09:10:42.958Z,92.76
2023-05-11T09:13:09.931Z,88.85
2023-05-11T09:15:37.555Z,89.33
2023-05-11T09:18:05.328Z,90.23
2023-05-11T09:20:33.425Z,87.76
2023-05-11T09:23:01.098Z,83.41
2023-05-11T09:25:32.337Z,84.14
2023-05-11T09:27:59.746Z,86.04
2023-05-11T09:30:27.675Z,82.90
2023-05-11T09:32:56.657Z,83.67
2023-05-11T09:35:29.151Z,85.32
2023-05-11T09:38:10.064Z,84.59
2023-05-11T09:40:45.030Z,85.22
2023-05-11T09:43:18.574Z,82.89
2023-05-11T09:45:48.134Z,84.34
2023-05-11T09:48:21.223Z,86.04
2023-05-11T09:50:52.808Z,86.19
2023-05-11T09:53:19.424Z,84.83
2023-05-11T09:55:56.143Z,85.93
2023-05-11T09:58:22.860Z,78.37
2023-05-11T10:00:59.611Z,82.01
2023-05-11T10:03:26.749Z,87.89
2023-05-11T10:06:00.962Z,80.36
2023-05-11T10:08:34.177Z,85.64
2023-05-11T10:11:02.563Z,76.28
2023-05-11T10:13:30.717Z,83.74
2023-05-11T10:15:59.211Z,75.24
2023-05-11T10:18:27.167Z,74.94
2023-05-11T10:20:55.811Z,79.13
2023-05-11T10:23:22.598Z,73.30
2023-05-11T10:25:50.555Z,72.14
2023-05-11T10:28:17.700Z,76.33
2023-05-11T10:30:45.547Z,80.88
2023-05-11T10:33:13.296Z,74.96
2023-05-11T10:35:40.099Z,76.23
2023-05-11T10:38:08.310Z,72.22
2023-05-11T10:40:41.412Z,78.54
2023-05-11T10:43:08.554Z,76.12
2023-05-11T10:45:59.542Z,79.78
2023-05-11T10:49:34.586Z,76.45
2023-05-11T10:52:29.585Z,70.49
2023-05-11T10:54:57.112Z,72.08
2023-05-11T10:57:42.282Z,77.41
2023-05-11T11:00:17.974Z,67.46
2023-05-11T11:02:45.514Z,73.92
2023-05-11T11:05:17.242Z,66.45
2023-05-11T11:08:00.791Z,73.55
2023-05-11T11:10:43.984Z,68.44
2023-05-11T11:13:15.128Z,75.99
2023-05-11T11:15:54.469Z,65.44
2023-05-11T11:18:27.839Z,71.62
2023-05-11T11:20:56.383Z,71.96
2023-05-11T11:23:49.009Z,67.67
2023-05-11T11:26:48.840Z,80.16
2023-05-11T11:29:16.351Z,83.66
2023-05-11T11:31:43.131Z,82.09
2023-05-11T11:34:25.265Z,79.00
2023-05-11T11:36:54.915Z,82.37
2023-05-11T11:39:43.101Z,81.42
2023-05-11T11:42:33.870Z,81.79
2023-05-11T11:45:31.659Z,84.53
2023-05-11T11:48:21.119Z,86.93
2023-05-11T11:50:49.379Z,88.57
2023-05-11T11:53:38.229Z,86.77
2023-05-11T11:56:07.520Z,86.29
2023-05-11T11:58:43.590Z,89.44
2023-05-11T12:01:13.201Z,90.09
2023-05-11T12:03:44.338Z,93.42
2023-05-11T12:06:12.066Z,92.86
2023-05-11T12:08:40.151Z,93.10
2023-05-11T12:11:08.098Z,93.63
2023-05-11T12:13:35.631Z,97.87
2023-05-11T12:16:18.868Z,99.85
2023-05-11T12:18:53.627Z,98.08
2023-05-11T12:21:21.794Z,95.63
2023-05-11T12:23:55.798Z,96.28
2023-05-11T12:26:24.205Z,95.24
2023-05-11T12:28:51.955Z,97.29
2023-05-11T12:31:19.085Z,95.69
2023-05-11T12:33:50.056Z,100.00
2023-05-11T12:36:18.402Z,94.83
2023-05-11T12:38:46.471Z,96.30
2023-05-11T12:41:23.445Z,95.54
2023-05-11T12:43:55.033Z,98.46
2023-05-11T12:46:23.163Z,99.37
2023-05-11T12:48:51.566Z,92.83
2023-05-11T12:51:46.969Z,88.69
2023-05-11T12:54:38.420Z,86.16
2023-05-11T12:57:22.300Z,92.97
2023-05-11T12:59:48.997Z,84.54
2023-05-11T13:02:20.737Z,88.17
2023-05-11T13:04:48.071Z,89.50
2023-05-11T13:07:24.075Z,78.82
2023-05-11T13:09:58.627Z,88.97
2023-05-11T13:12:25.965Z,78.08
2023-05-11T13:15:09.168Z,80.62
2023-05-11T13:17:38.525Z,82.98
2023-05-11T13:20:23.750Z,79.52
2023-05-11T13:22:51.319Z,87.34
2023-05-11T13:25:21.702Z,74.97
2023-05-11T13:27:48.551Z,81.77
2023-05-11T13:30:15.457Z,81.02
2023-05-11T13:32:42.139Z,81.01
2023-05-11T13:35:09.190Z,84.63
2023-05-11T13:37:35.877Z,82.14
2023-05-11T13:40:02.548Z,79.84
2023-05-11T13:42:29.580Z,80.51
2023-05-11T13:44:56.488Z,79.52
2023-05-11T13:47:23.319Z,82.91
2023-05-11T13:49:50.051Z,77.48
2023-05-11T13:52:16.659Z,81.22
2023-05-11T13:54:43.308Z,87.06
2023-05-11T13:57:10.278Z,87.07
2023-05-11T13:59:38.162Z,82.17
2023-05-11T14:02:06.436Z,84.16
2023-05-11T14:04:34.664Z,84.99
2023-05-11T14:07:01.294Z,82.69
2023-05-11T14:09:28.116Z,83.46
2023-05-11T14:11:54.748Z,85.58
2023-05-11T14:14:21.520Z,88.39
2023-05-11T14:16:48.344Z,84.93
2023-05-11T14:19:16.183Z,88.61
2023-05-11T14:21:43.620Z,86.61
2023-05-11T14:24:12.406Z,89.25
2023-05-11T14:26:41.256Z,84.96
2023-05-11T14:29:08.225Z,83.76
2023-05-11T14:31:36.047Z,80.14
2023-05-11T14:34:08.037Z,83.82
2023-05-11T14:36:34.669Z,79.74
2023-05-11T14:39:01.346Z,80.55
2023-05-11T14:41:27.918Z,75.80
2023-05-11T14:43:54.621Z,76.74
2023-05-11T14:46:22.467Z,75.61
2023-05-11T14:48:50.085Z,79.68
2023-05-11T14:51:16.758Z,80.13
2023-05-11T14:53:43.518Z,73.62
2023-05-11T14:56:11.120Z,71.00
2023-05-11T14:58:37.951Z,70.63
2023-05-11T15:01:05.169Z,71.11
2023-05-11T15:03:31.851Z,71.92
2023-05-11T15:05:58.550Z,63.63
2023-05-11T15:08:30.191Z,64.73
2023-05-11T15:10:58.012Z,69.83
2023-05-11T15:13:24.818Z,71.43
2023-05-11T15:15:51.973Z,65.50
2023-05-11T15:18:19.759Z,66.06
2023-05-11T15:20:46.884Z,62.36
2023-05-11T15:23:16.936Z,63.42
2023-05-11T15:25:45.659Z,73.30
2023-05-11T15:28:13.702Z,71.66
2023-05-11T15:30:41.683Z,68.26
2023-05-11T15:33:10.676Z,76.60
2023-05-11T15:35:38.373Z,76.75
2023-05-11T15:38:06.132Z,74.11
2023-05-11T15:40:32.931Z,76.04
2023-05-11T15:43:00.248Z,80.17
2023-05-11T15:45:27.230Z,84.23
2023-05-11T15:47:54.413Z,85.67
2023-05-11T15:50:21.745Z,89.95
2023-05-11T15:52:48.762Z,85.94
2023-05-11T15:55:15.458Z,89.25
2023-05-11T15:57:42.096Z,83.78
2023-05-11T16:00:12.740Z,87.15
2023-05-11T16:02:40.729Z,84.39
2023-05-11T16:05:07.555Z,88.40
2023-05-11T16:07:34.389Z,91.37
2023-05-11T16:10:01.531Z,95.49
2023-05-11T16:12:28.157Z,95.39
2023-05-11T16:14:54.769Z,93.12
2023-05-11T16:17:21.480Z,94.39
2023-05-11T16:19:48.436Z,94.16
2023-05-11T16:22:15.043Z,83.78
2023-05-11T16:24:41.604Z,93.79
2023-05-11T16:27:08.269Z,91.80
2023-05-11T16:29:35.379Z,93.41
2023-05-11T16:32:02.105Z,97.77
2023-05-11T16:34:28.996Z,89.99
2023-05-11T16:36:58.604Z,89.18
2023-05-11T16:39:25.698Z,93.95
2023-05-11T16:41:52.477Z,94.43
2023-05-11T16:44:19.038Z,96.79
2023-05-11T16:46:45.655Z,97.78
2023-05-11T16:49:12.334Z,94.93
2023-05-11T16:51:39.143Z,94.48
2023-05-11T16:54:05.709Z,95.27
2023-05-11T16:56:32.309Z,93.72
2023-05-11T16:58:59.031Z,93.85
2023-05-11T17:01:25.605Z,91.65
2023-05-11T17:03:52.340Z,93.55
2023-05-11T17:06:21.300Z,95.75
2023-05-11T17:08:47.957Z,95.32
2023-05-11T17:11:14.660Z,97.24
2023-05-11T17:13:41.281Z,95.72
2023-05-11T17:16:08.128Z,97.68
2023-05-11T17:18:35.075Z,99.35
2023-05-11T17:21:01.732Z,99.85
2023-05-11T17:23:28.630Z,100.00
2023-05-11T17:25:55.388Z,100.00
2023-05-11T17:28:22.292Z,100.00
2023-05-11T17:30:52.811Z,100.00
2023-05-11T17:33:19.857Z,100.00
2023-05-11T17:35:46.558Z,100.00
2023-05-11T17:38:13.136Z,100.00
2023-05-11T17:40:39.756Z,100.00
2023-05-11T17:43:06.603Z,100.00
2023-05-11T17:45:33.530Z,100.00
2023-05-11T17:48:00.281Z,100.00
2023-05-11T17:50:26.945Z,100.00
2023-05-11T17:52:53.566Z,100.00
2023-05-11T17:55:21.202Z,100.00
2023-05-11T17:57:48.469Z,100.00
2023-05-11T18:00:15.574Z,100.00
2023-05-11T18:02:42.449Z,100.00
2023-05-11T18:05:09.487Z,100.00
2023-05-11T18:07:36.361Z,100.00
2023-05-11T18:10:03.005Z,100.00
2023-05-11T18:12:30.424Z,100.00
2023-05-11T18:14:57.060Z,100.00
2023-05-11T18:17:23.746Z,100.00
2023-05-11T18:19:50.480Z,100.00
2023-05-11T18:22:17.436Z,100.00
2023-05-11T18:24:44.084Z,100.00
2023-05-11T18:27:11.233Z,100.00
2023-05-11T18:29:37.872Z,100.00
2023-05-11T18:32:04.881Z,100.00
2023-05-11T18:34:31.539Z,100.00
2023-05-11T18:36:58.162Z,100.00
2023-05-11T18:39:24.937Z,100.00
2023-05-11T18:41:51.503Z,100.00
2023-05-11T18:44:19.322Z,100.00
2023-05-11T18:46:46.197Z,100.00
2023-05-11T18:49:13.016Z,100.00
2023-05-11T18:51:39.587Z,100.00
2023-05-11T18:54:06.674Z,100.00
2023-05-11T18:56:33.391Z,100.00
2023-05-11T18:59:00.027Z,100.00
2023-05-11T19:01:36.163Z,100.00
2023-05-11T19:04:13.920Z,100.00
2023-05-11T19:06:40.542Z,100.00
2023-05-11T19:09:07.125Z,100.00
2023-05-11T19:11:33.870Z,100.00
2023-05-11T19:14:01.642Z,100.00
2023-05-11T19:16:32.503Z,100.00
2023-05-11T19:18:59.683Z,100.00
2023-05-11T19:21:26.526Z,100.00
2023-05-11T19:23:53.092Z,100.00
2023-05-11T19:26:19.704Z,100.00
2023-05-11T19:28:46.306Z,100.00
2023-05-11T19:31:12.980Z,100.00
2023-05-11T19:33:39.632Z,100.00
2023-05-11T19:36:06.556Z,100.00
2023-05-11T19:38:35.431Z,100.00
2023-05-11T19:41:02.125Z,100.00
2023-05-11T19:43:28.756Z,100.00
2023-05-11T19:45:55.466Z,100.00
2023-05-11T19:48:22.142Z,100.00
2023-05-11T19:50:48.760Z,100.00
2023-05-11T19:53:15.644Z,100.00
2023-05-11T19:55:42.317Z,100.00
2023-05-11T19:58:09.387Z,100.00
2023-05-11T20:00:36.187Z,100.00
2023-05-11T20:03:03.450Z,100.00
2023-05-11T20:05:30.462Z,100.00
2023-05-11T20:07:57.041Z,100.00
2023-05-11T20:10:23.652Z,100.00
2023-05-11T20:12:51.312Z,100.00
2023-05-11T20:15:18.612Z,100.00
2023-05-11T20:17:45.829Z,100.00
2023-05-11T20:20:12.467Z,100.00
2023-05-11T20:22:39.122Z,100.00
2023-05-11T20:25:11.630Z,100.00
2023-05-11T20:27:43.573Z,100.00
2023-05-11T20:30:10.463Z,100.00
2023-05-11T20:32:37.312Z,100.00
2023-05-11T20:35:05.150Z,100.00
2023-05-11T20:37:32.117Z,100.00
2023-05-11T20:39:58.853Z,100.00
2023-05-11T20:42:27.140Z,100.00
2023-05-11T20:44:54.035Z,100.00
2023-05-11T20:47:20.654Z,100.00
2023-05-11T20:49:50.387Z,100.00
2023-05-11T20:52:17.831Z,100.00
2023-05-11T20:54:44.708Z,100.00
2023-05-11T20:57:11.344Z,100.00
2023-05-11T21:02:07.469Z,100.00
2023-05-11T21:04:36.123Z,100.00
2023-05-11T21:07:02.745Z,100.00
2023-05-11T21:09:29.327Z,100.00
2023-05-11T21:11:55.938Z,100.00
2023-05-11T21:14:22.719Z,100.00
2023-05-11T21:16:49.292Z,100.00
2023-05-11T21:19:16.664Z,100.00
2023-05-11T21:21:43.463Z,100.00
2023-05-11T21:24:10.157Z,100.00
2023-05-11T21:26:36.920Z,100.00
2023-05-11T21:29:03.514Z,100.00
2023-05-11T21:31:30.194Z,100.00
2023-05-11T21:33:57.264Z,100.00
2023-05-11T21:36:23.798Z,100.00
2023-05-11T21:38:50.341Z,100.00
2023-05-11T21:41:17.021Z,100.00
2023-05-11T21:43:43.638Z,100.00
2023-05-11T21:46:10.341Z,100.00
2023-05-11T21:48:36.944Z,100.00
2023-05-11T21:51:03.912Z,100.00
2023-05-11T21:53:30.540Z,100.00
2023-05-11T21:55:57.128Z,100.00
2023-05-11T21:58:23.721Z,100.00
2023-05-11T22:00:50.363Z,100.00
2023-05-11T22:03:17.210Z,100.00
2023-05-11T22:05:43.825Z,100.00
2023-05-11T22:08:14.944Z,100.00
2023-05-11T22:10:43.078Z,100.00
2023-05-11T22:13:09.874Z,100.00
2023-05-11T22:15:36.459Z,100.00
2023-05-11T22:18:03.643Z,100.00
2023-05-11T22:20:31.703Z,100.00
2023-05-11T22:22:59.182Z,100.00
2023-05-11T22:25:26.220Z,100.00
2023-05-11T22:27:52.955Z,100.00
2023-05-11T22:30:20.232Z,100.00
2023-05-11T22:32:47.396Z,100.00
2023-05-11T22:35:14.202Z,100.00
2023-05-11T22:37:40.843Z,100.00
2023-05-11T22:40:08.141Z,100.00
2023-05-11T22:42:34.867Z,100.00
2023-05-11T22:45:02.142Z,100.00
2023-05-11T22:47:29.460Z,100.00
2023-05-11T22:49:56.205Z,100.00
2023-05-11T22:52:23.091Z,100.00
2023-05-11T22:54:54.646Z,100.00
2023-05-11T22:57:23.971Z,100.00
2023-05-11T22:59:50.723Z,100.00
2023-05-11T23:02:17.529Z,100.00
2023-05-11T23:04:44.564Z,100.00
2023-05-11T23:07:12.901Z,100.00
2023-05-11T23:09:39.665Z,100.00
2023-05-11T23:12:06.598Z,100.00
2023-05-11T23:14:33.203Z,100.00
2023-05-11T23:16:59.852Z,100.00
2023-05-11T23:19:26.840Z,100.00
2023-05-11T23:21:53.499Z,100.00
2023-05-11T23:24:20.149Z,100.00
2023-05-11T23:26:46.818Z,100.00
2023-05-11T23:29:13.419Z,100.00
2023-05-11T23:31:40.287Z,100.00
2023-05-11T23:34:07.092Z,100.00
2023-05-11T23:36:35.018Z,100.00
2023-05-11T23:39:01.614Z,100.00
2023-05-11T23:41:28.175Z,100.00
2023-05-11T23:43:54.766Z,100.00
2023-05-11T23:46:21.414Z,100.00
2023-05-11T23:48:48.445Z,100.00
2023-05-11T23:51:16.548Z,100.00
2023-05-11T23:53:43.234Z,100.00
2023-05-11T23:56:09.945Z,100.00
2023-05-11T23:58:36.661Z,100.00
